createdAt,value
2017-06-05T08:26:42.923Z,23.85
2017-06-05T08:29:26.349Z,24.05
2017-06-05T08:39:23.016Z,24.21
2017-06-05T08:42:06.736Z,24.33
2017-06-05T08:45:00.734Z,24.38
2017-06-05T08:47:55.362Z,24.42
2017-06-05T08:51:01.509Z,24.50
2017-06-05T08:53:51.522Z,24.62
2017-06-05T08:56:57.747Z,24.72
2017-06-05T08:59:47.681Z,24.84
2017-06-05T09:02:42.935Z,25.00
2017-06-05T09:05:37.639Z,25.18
2017-06-05T09:08:32.711Z,25.39
2017-06-05T09:11:27.853Z,25.58
2017-06-05T09:14:23.042Z,25.73
2017-06-05T09:17:18.196Z,25.91
2017-06-05T09:20:13.388Z,26.09
2017-06-05T09:23:08.450Z,26.28
2017-06-05T09:26:03.676Z,26.47
2017-06-05T09:28:58.918Z,26.72
2017-06-05T09:31:53.990Z,26.92
2017-06-05T09:34:48.887Z,26.92
2017-06-05T09:37:43.815Z,26.93
2017-06-05T09:40:38.683Z,26.96
2017-06-05T09:43:33.810Z,27.03
2017-06-05T09:46:28.868Z,27.20
2017-06-05T09:49:24.101Z,27.40
2017-06-05T09:52:19.223Z,27.57
2017-06-05T09:55:14.347Z,27.66
2017-06-05T09:58:09.415Z,27.73
2017-06-05T10:01:04.602Z,27.94
2017-06-05T10:03:59.762Z,28.05
2017-06-05T10:06:54.715Z,28.10
2017-06-05T10:09:49.736Z,28.20
2017-06-05T10:12:44.927Z,28.34
2017-06-05T10:15:39.855Z,28.28
2017-06-05T10:18:34.705Z,28.28
2017-06-05T10:21:29.514Z,28.23
2017-06-05T10:24:24.234Z,28.09
2017-06-05T10:27:19.151Z,28.09
2017-06-05T10:30:13.950Z,28.01
2017-06-05T10:33:08.650Z,27.91
2017-06-05T10:38:58.001Z,27.59
2017-06-05T10:41:52.644Z,27.47
2017-06-05T10:44:47.213Z,27.31
2017-06-05T10:47:41.752Z,27.09
2017-06-05T10:50:36.348Z,26.92
2017-06-05T10:53:31.156Z,26.74
2017-06-05T10:56:25.839Z,26.60
2017-06-05T11:02:15.236Z,26.34
2017-06-05T11:05:09.877Z,26.22
2017-06-05T11:08:04.470Z,26.12
2017-06-05T11:10:59.045Z,26.02
2017-06-05T11:13:53.562Z,25.90
2017-06-05T11:16:48.223Z,25.80
2017-06-05T11:25:31.937Z,25.50
2017-06-05T11:28:26.629Z,25.38
2017-06-05T11:31:21.355Z,25.29
2017-06-05T11:34:16.169Z,25.20
2017-06-05T11:37:10.873Z,25.12
2017-06-05T11:40:05.525Z,25.03
2017-06-05T11:43:00.271Z,24.92
2017-06-05T11:45:54.829Z,24.83
2017-06-05T11:48:49.442Z,24.75
2017-06-05T11:51:44.017Z,24.65
2017-06-05T11:54:38.655Z,24.57
2017-06-05T11:57:33.419Z,24.49
2017-06-05T12:00:27.874Z,24.41
2017-06-05T12:06:17.022Z,24.32
2017-06-05T12:09:11.691Z,24.30
2017-06-05T12:17:56.699Z,24.22
2017-06-05T12:20:50.244Z,24.20
2017-06-05T12:23:44.976Z,24.18
2017-06-05T12:26:39.478Z,24.15
2017-06-05T12:29:34.125Z,24.11
2017-06-05T12:32:28.759Z,24.08
2017-06-05T12:38:17.850Z,24.00
2017-06-05T12:41:12.380Z,23.97
2017-06-05T12:44:07.094Z,23.96
2017-06-05T12:47:01.583Z,23.95
2017-06-05T12:49:56.162Z,23.96
2017-06-05T12:55:45.136Z,24.00
2017-06-05T12:58:39.602Z,24.01
2017-06-05T13:02:08.187Z,24.00
2017-06-05T13:07:48.753Z,23.99
2017-06-05T13:10:43.282Z,23.97
2017-06-05T13:13:37.845Z,23.95
2017-06-05T13:16:32.346Z,23.92
2017-06-05T13:19:26.930Z,23.90
2017-06-05T13:22:21.315Z,23.86
2017-06-05T13:25:15.806Z,23.82
2017-06-05T13:28:10.403Z,23.78
2017-06-05T13:31:04.874Z,23.75
2017-06-05T13:34:00.326Z,23.71
2017-06-05T13:36:53.871Z,23.66
2017-06-05T13:42:43.035Z,23.58
2017-06-05T13:45:37.506Z,23.56
2017-06-05T13:48:32.020Z,23.55
2017-06-05T13:51:26.383Z,23.55
2017-06-05T13:54:20.915Z,23.53
2017-06-05T13:57:15.306Z,23.52
2017-06-05T14:00:09.815Z,23.51
2017-06-05T14:03:04.287Z,23.50
2017-06-05T14:05:58.806Z,23.48
2017-06-05T14:08:53.253Z,23.46
2017-06-05T14:11:47.836Z,23.44
2017-06-05T14:14:42.235Z,23.42
2017-06-05T14:17:36.954Z,23.39
2017-06-05T14:20:31.616Z,23.36
2017-06-05T14:23:26.124Z,23.33
2017-06-05T14:26:20.653Z,23.30
2017-06-05T14:29:15.136Z,23.26
2017-06-05T14:32:09.607Z,23.22
2017-06-05T14:35:04.161Z,23.18
2017-06-05T14:37:58.684Z,23.15
2017-06-05T14:43:47.592Z,23.10
2017-06-05T14:46:42.190Z,23.08
2017-06-05T14:49:36.723Z,23.06
2017-06-05T14:53:27.687Z,23.02
2017-06-05T14:56:12.663Z,23.06
2017-06-05T15:07:33.660Z,23.30
2017-06-05T15:10:27.930Z,23.28
2017-06-05T15:13:56.269Z,23.24
2017-06-05T15:16:53.719Z,23.23
2017-06-05T15:19:43.143Z,23.22
2017-06-05T15:22:48.835Z,23.20
2017-06-05T15:27:08.729Z,23.18
2017-06-05T15:32:46.806Z,23.26
2017-06-05T15:37:11.482Z,23.22
2017-06-05T15:40:40.904Z,23.26
2017-06-05T15:43:26.090Z,23.27
2017-06-05T15:46:42.818Z,23.23
2017-06-05T15:49:30.005Z,23.18
2017-06-05T16:00:29.493Z,23.01
2017-06-05T16:03:14.594Z,23.01
